Time;durP1;ratioP1;P1;durP2;ratioP2;P2;SDS_P1;SDS_P2;PMS_P1;PMS_P2;Temp;Humidity;BMP_temperature;BMP_pressure;BME280_temperature;BME280_humidity;BME280_pressure;Samples;Min_cycle;Max_cycle;Signal;HPM_P1;HPM_P2
2022/04/23 00:01:46;;;;;;;2.30;0.88;;;11.70;99.90;;;;;;5015856;28;20017;-77
2022/04/23 00:04:13;;;;;;;2.55;0.65;;;11.60;99.90;;;;;;5015886;28;20061;-83
2022/04/23 00:06:40;;;;;;;1.00;0.88;;;11.60;99.90;;;;;;5016076;28;20018;-77
2022/04/23 00:09:07;;;;;;;1.25;0.55;;;11.60;99.90;;;;;;5014560;28;20061;-77
2022/04/23 00:11:35;;;;;;;1.63;1.05;;;11.60;99.90;;;;;;5015952;28;20094;-77
2022/04/23 00:14:04;;;;;;;4.55;0.93;;;11.60;99.90;;;;;;5014325;28;20026;-77
2022/04/23 00:16:30;;;;;;;0.60;0.60;;;11.50;99.90;;;;;;5015623;28;20045;-77
2022/04/23 00:18:58;;;;;;;0.80;0.40;;;11.50;99.90;;;;;;5014722;28;20036;-77
2022/04/23 00:21:24;;;;;;;1.40;0.57;;;11.50;99.90;;;;;;5015872;28;20026;-77
2022/04/23 00:23:50;;;;;;;1.83;1.30;;;11.50;99.90;;;;;;5014616;28;20056;-85
2022/04/23 00:26:17;;;;;;;0.65;0.65;;;11.40;99.90;;;;;;5015433;28;20393;-85
2022/04/23 00:28:43;;;;;;;2.00;1.00;;;11.40;99.90;;;;;;5016485;28;20060;-85
2022/04/23 00:31:10;;;;;;;1.50;1.25;;;11.40;99.90;;;;;;5015456;28;20026;-76
2022/04/23 00:33:37;;;;;;;1.20;1.10;;;11.40;99.90;;;;;;5013624;28;20054;-77
2022/04/23 00:36:07;;;;;;;2.38;1.27;;;11.30;99.90;;;;;;5015400;28;20417;-77
2022/04/23 00:38:33;;;;;;;0.60;0.60;;;11.30;99.90;;;;;;5014088;28;20033;-77
2022/04/23 00:41:00;;;;;;;4.63;1.45;;;11.20;99.90;;;;;;5015287;28;20026;-76
2022/04/23 00:43:25;;;;;;;1.77;1.55;;;11.20;99.90;;;;;;5014603;28;20026;-76
2022/04/23 00:45:51;;;;;;;7.22;0.85;;;11.20;99.90;;;;;;5013772;28;20029;-76
2022/04/23 00:48:17;;;;;;;1.45;1.35;;;11.00;99.90;;;;;;5015480;28;20034;-77
2022/04/23 00:50:46;;;;;;;0.15;0.15;;;11.00;99.90;;;;;;5013807;28;20080;-85
2022/04/23 00:53:12;;;;;;;1.17;0.90;;;10.90;99.90;;;;;;5013407;28;20531;-77
2022/04/23 00:55:38;;;;;;;0.38;0.38;;;10.80;99.90;;;;;;5015542;28;20049;-76
2022/04/23 00:58:04;;;;;;;9.25;0.88;;;10.80;99.90;;;;;;5014679;28;20026;-77
2022/04/23 01:00:33;;;;;;;1.20;0.88;;;10.90;99.90;;;;;;5015036;28;20072;-77
2022/04/23 01:02:58;;;;;;;4.45;2.33;;;10.90;99.90;;;;;;5013953;28;20037;-77
2022/04/23 01:05:24;;;;;;;1.13;0.68;;;11.00;99.90;;;;;;5014862;28;20021;-77
2022/04/23 01:07:52;;;;;;;0.38;0.38;;;11.00;99.90;;;;;;5014064;28;20033;-77
2022/04/23 01:10:18;;;;;;;1.42;1.33;;;11.00;99.90;;;;;;5013978;28;20026;-77
2022/04/23 01:12:45;;;;;;;2.25;1.70;;;11.00;99.90;;;;;;5013958;28;20072;-77
2022/04/23 01:15:15;;;;;;;0.10;0.10;;;11.10;99.90;;;;;;5014688;28;20037;-76
2022/04/23 01:17:42;;;;;;;0.35;0.35;;;11.10;99.90;;;;;;5014684;28;20022;-77
2022/04/23 01:20:11;;;;;;;4.18;1.73;;;11.20;99.90;;;;;;5014354;28;20033;-85
2022/04/23 01:22:38;;;;;;;1.20;1.20;;;11.20;99.90;;;;;;5014636;28;20071;-77
2022/04/23 01:25:06;;;;;;;0.88;0.82;;;11.20;99.90;;;;;;5010148;28;20037;-77
2022/04/23 01:27:34;;;;;;;0.35;0.35;;;11.20;99.90;;;;;;5010009;28;20050;-77
2022/04/23 01:30:01;;;;;;;0.47;0.47;;;11.20;99.90;;;;;;5009302;28;20509;-85
2022/04/23 01:32:27;;;;;;;0.47;0.47;;;11.20;99.90;;;;;;4994957;28;20022;-77
2022/04/23 01:34:54;;;;;;;3.08;0.90;;;11.20;99.90;;;;;;4994246;28;20034;-77
2022/04/23 01:37:20;;;;;;;1.27;1.23;;;11.20;99.90;;;;;;4998895;28;20137;-77
2022/04/23 01:39:47;;;;;;;0.57;0.57;;;11.30;99.90;;;;;;5014202;28;20036;-77
2022/04/23 01:42:17;;;;;;;4.68;2.58;;;11.30;99.90;;;;;;5014667;28;20061;-85
2022/04/23 01:44:53;;;;;;;5.18;2.33;;;11.30;99.90;;;;;;5012825;28;20026;-77
2022/04/23 01:47:20;;;;;;;1.52;1.42;;;11.30;99.90;;;;;;5014281;28;20485;-76
2022/04/23 01:49:46;;;;;;;0.45;0.45;;;11.30;99.90;;;;;;5012583;28;20034;-77
2022/04/23 01:52:13;;;;;;;3.50;1.58;;;11.30;99.90;;;;;;5013052;28;20050;-85
2022/04/23 01:54:39;;;;;;;1.00;0.60;;;11.30;99.90;;;;;;5000381;28;20113;-77
2022/04/23 01:57:15;;;;;;;0.90;0.90;;;11.30;99.90;;;;;;4994308;28;20106;-85
2022/04/23 01:59:42;;;;;;;2.00;1.38;;;11.30;99.90;;;;;;4993023;28;20080;-86
2022/04/23 02:02:08;;;;;;;2.30;1.20;;;11.30;99.90;;;;;;4994478;28;20029;-85
2022/04/23 02:04:33;;;;;;;0.85;0.47;;;11.30;99.90;;;;;;4993673;28;20026;-85
2022/04/23 02:07:00;;;;;;;1.38;1.27;;;11.30;99.90;;;;;;4994134;28;20022;-77
2022/04/23 02:09:25;;;;;;;1.75;1.63;;;11.30;99.90;;;;;;4992795;28;20022;-77
2022/04/23 02:11:52;;;;;;;3.80;1.30;;;11.30;99.90;;;;;;4993507;28;20498;-77
2022/04/23 02:14:18;;;;;;;6.35;0.90;;;11.30;99.90;;;;;;4992582;28;20433;-77
2022/04/23 02:16:45;;;;;;;1.98;1.15;;;11.30;99.90;;;;;;4994250;28;20101;-77
2022/04/23 02:19:10;;;;;;;11.45;3.42;;;11.30;99.90;;;;;;4992128;28;20401;-85
2022/04/23 02:21:37;;;;;;;0.70;0.70;;;11.30;99.90;;;;;;4994476;28;20030;-86
2022/04/23 02:24:04;;;;;;;2.15;0.85;;;11.30;99.90;;;;;;4994160;28;20041;-77
2022/04/23 02:26:30;;;;;;;2.22;1.13;;;11.40;99.90;;;;;;5005606;28;20028;-77
2022/04/23 02:28:56;;;;;;;1.88;1.33;;;11.40;99.90;;;;;;5012680;28;20109;-77
2022/04/23 02:31:21;;;;;;;5.50;0.65;;;11.40;99.90;;;;;;5011828;28;20034;-77
2022/04/23 02:33:47;;;;;;;11.38;3.10;;;11.40;99.90;;;;;;5013007;28;20371;-77
2022/04/23 02:36:15;;;;;;;2.20;1.08;;;11.40;99.90;;;;;;5013598;28;20065;-84
2022/04/23 02:38:41;;;;;;;2.10;0.93;;;11.50;99.90;;;;;;5013729;28;20025;-77
2022/04/23 02:41:09;;;;;;;2.10;1.05;;;11.50;99.90;;;;;;5012243;28;20036;-76
2022/04/23 02:43:42;;;;;;;0.40;0.40;;;11.50;99.90;;;;;;5013652;28;20060;-77
2022/04/23 02:46:12;;;;;;;0.60;0.60;;;11.60;99.90;;;;;;5014877;28;20026;-85
2022/04/23 02:48:38;;;;;;;0.93;0.22;;;11.60;99.90;;;;;;5013549;28;20052;-77
2022/04/23 02:51:04;;;;;;;1.42;1.33;;;11.50;99.90;;;;;;5011178;28;20061;-86
2022/04/23 02:53:30;;;;;;;0.85;0.85;;;11.50;99.90;;;;;;5013802;28;20551;-77
2022/04/23 02:55:56;;;;;;;3.50;0.73;;;11.50;99.90;;;;;;5013078;28;20069;-76
2022/04/23 02:58:27;;;;;;;0.10;0.10;;;11.50;99.90;;;;;;5011780;28;20022;-85
2022/04/23 03:00:53;;;;;;;8.32;2.15;;;11.50;99.90;;;;;;5013620;28;20026;-77
2022/04/23 03:03:19;;;;;;;2.25;0.75;;;11.50;99.90;;;;;;5012491;28;20018;-77
2022/04/23 03:05:46;;;;;;;0.47;0.47;;;11.50;99.90;;;;;;5011741;28;20030;-77
2022/04/23 03:08:12;;;;;;;1.88;1.08;;;11.40;99.90;;;;;;5013506;28;20022;-77
2022/04/23 03:10:39;;;;;;;0.80;0.35;;;11.50;99.90;;;;;;5013488;28;20037;-77
2022/04/23 03:13:07;;;;;;;0.45;0.45;;;11.50;99.90;;;;;;5013433;28;20057;-77
2022/04/23 03:15:34;;;;;;;0.50;0.50;;;11.50;99.90;;;;;;5013469;28;20029;-77
2022/04/23 03:18:12;;;;;;;1.17;0.93;;;11.50;99.90;;;;;;5012897;28;20508;-77
2022/04/23 03:20:39;;;;;;;2.38;0.75;;;11.50;99.90;;;;;;5012781;28;20033;-77
2022/04/23 03:23:06;;;;;;;1.52;0.93;;;11.50;99.90;;;;;;5013439;28;20433;-76
2022/04/23 03:25:32;;;;;;;1.25;0.45;;;11.50;99.90;;;;;;5012893;28;20428;-77
2022/04/23 03:28:01;;;;;;;0.30;0.30;;;11.50;99.90;;;;;;5012891;28;20018;-77
2022/04/23 03:30:28;;;;;;;0.63;0.63;;;11.50;99.90;;;;;;5012411;28;20038;-77
2022/04/23 03:32:54;;;;;;;0.93;0.68;;;11.50;99.90;;;;;;5013619;28;20026;-77
2022/04/23 03:35:20;;;;;;;0.45;0.45;;;11.60;99.90;;;;;;5015690;28;20037;-77
2022/04/23 03:37:47;;;;;;;0.30;0.25;;;11.60;99.90;;;;;;5015785;28;20026;-76
2022/04/23 03:40:13;;;;;;;0.38;0.38;;;11.60;99.90;;;;;;5015298;28;20389;-85
2022/04/23 03:42:42;;;;;;;1.05;0.47;;;11.70;99.90;;;;;;5016312;28;20031;-77
2022/04/23 03:45:12;;;;;;;1.10;0.93;;;11.70;99.90;;;;;;5016329;28;20030;-77
2022/04/23 03:47:44;;;;;;;0.85;0.85;;;11.70;99.90;;;;;;5014843;28;20127;-77
2022/04/23 03:50:10;;;;;;;0.15;0.15;;;11.80;99.90;;;;;;5015220;28;20021;-76
2022/04/23 03:52:36;;;;;;;0.45;0.40;;;11.80;99.90;;;;;;4998291;28;20065;-77
2022/04/23 03:55:06;;;;;;;0.38;0.30;;;11.80;99.90;;;;;;4999798;28;20053;-77
2022/04/23 03:57:52;;;;;;;0.13;0.13;;;11.80;99.90;;;;;;4996535;28;20481;-76
2022/04/23 04:00:22;;;;;;;0.10;0.10;;;11.80;99.90;;;;;;4996632;28;20026;-77
2022/04/23 04:02:53;;;;;;;0.65;0.65;;;11.80;99.90;;;;;;4996417;28;20018;-85
2022/04/23 04:05:19;;;;;;;0.60;0.60;;;11.80;99.90;;;;;;4996118;28;20027;-85
2022/04/23 04:07:46;;;;;;;2.25;0.68;;;11.80;99.90;;;;;;4996266;28;20022;-85
2022/04/23 04:10:17;;;;;;;0.30;0.30;;;11.70;99.90;;;;;;4994747;28;20121;-77
2022/04/23 04:12:42;;;;;;;4.68;1.20;;;11.70;99.90;;;;;;4994103;28;20064;-77
2022/04/23 04:15:11;;;;;;;0.22;0.22;;;11.80;99.90;;;;;;4994526;28;20058;-77
2022/04/23 04:17:40;;;;;;;0.55;0.30;;;11.70;99.90;;;;;;4994635;28;20046;-84
2022/04/23 04:20:13;;;;;;;6.60;0.60;;;11.70;99.90;;;;;;4996482;28;20401;-77
2022/04/23 04:22:40;;;;;;;0.40;0.40;;;11.70;99.90;;;;;;4996221;28;20485;-86
2022/04/23 04:25:07;;;;;;;0.20;0.20;;;11.70;99.90;;;;;;4996174;28;20498;-77
2022/04/23 04:27:34;;;;;;;0.90;0.70;;;11.60;99.90;;;;;;5014312;28;20076;-84
2022/04/23 04:30:05;;;;;;;0.28;0.28;;;11.60;99.90;;;;;;5015390;28;20108;-77
2022/04/23 04:32:31;;;;;;;0.60;0.60;;;11.60;99.90;;;;;;5014237;28;20029;-85
2022/04/23 04:34:57;;;;;;;0.00;0.00;;;11.60;99.90;;;;;;5013142;28;20029;-77
2022/04/23 04:37:24;;;;;;;0.55;0.55;;;11.60;99.90;;;;;;5014366;28;20489;-76
2022/04/23 04:39:50;;;;;;;0.40;0.40;;;11.60;99.90;;;;;;5015170;28;20026;-85
2022/04/23 04:42:17;;;;;;;1.98;0.65;;;11.60;99.90;;;;;;5014324;28;20037;-84
2022/04/23 04:44:43;;;;;;;0.30;0.30;;;11.60;99.90;;;;;;5014234;28;20092;-77
2022/04/23 04:47:09;;;;;;;0.00;0.00;;;11.60;99.90;;;;;;5014995;28;20034;-77
2022/04/23 04:49:36;;;;;;;0.00;0.00;;;11.50;99.90;;;;;;5014793;28;20068;-78
2022/04/23 04:52:02;;;;;;;0.43;0.28;;;11.50;99.90;;;;;;5013468;28;20149;-77
2022/04/23 04:54:30;;;;;;;0.20;0.20;;;11.40;99.90;;;;;;5015439;28;20508;-77
2022/04/23 04:56:56;;;;;;;0.85;0.22;;;11.40;99.90;;;;;;5013659;28;20131;-77
2022/04/23 04:59:35;;;;;;;0.10;0.10;;;11.30;99.90;;;;;;5013531;28;20022;-85
2022/04/23 05:02:01;;;;;;;0.75;0.10;;;11.30;99.90;;;;;;5013834;28;20105;-86
2022/04/23 05:04:28;;;;;;;0.50;0.50;;;11.30;99.90;;;;;;5013211;28;20025;-86
2022/04/23 05:06:54;;;;;;;0.10;0.10;;;11.30;99.90;;;;;;5015256;28;20026;-77
2022/04/23 05:09:21;;;;;;;0.13;0.10;;;11.40;99.90;;;;;;5015164;28;20504;-85
2022/04/23 05:11:47;;;;;;;0.30;0.25;;;11.40;99.90;;;;;;5013472;28;20531;-77
2022/04/23 05:14:13;;;;;;;0.30;0.30;;;11.40;99.90;;;;;;5014956;28;20040;-77
2022/04/23 05:16:38;;;;;;;3.30;0.35;;;11.40;99.90;;;;;;5013622;28;20532;-77
2022/04/23 05:19:05;;;;;;;0.90;0.28;;;11.40;99.90;;;;;;5013917;28;20030;-77
2022/04/23 05:21:32;;;;;;;1.08;0.43;;;11.40;99.90;;;;;;5013692;28;20029;-85
2022/04/23 05:23:57;;;;;;;0.00;0.00;;;11.40;99.90;;;;;;5014111;28;20017;-77
2022/04/23 05:26:23;;;;;;;0.10;0.10;;;11.50;99.90;;;;;;5014261;28;20022;-77
2022/04/23 05:28:49;;;;;;;0.10;0.10;;;11.50;99.90;;;;;;5014382;28;20029;-77
2022/04/23 05:31:16;;;;;;;1.38;1.27;;;11.50;99.90;;;;;;5013752;28;20032;-77
2022/04/23 05:33:41;;;;;;;0.35;0.35;;;11.60;99.90;;;;;;5014133;28;20113;-77
2022/04/23 05:36:08;;;;;;;1.10;0.40;;;11.60;99.90;;;;;;5012181;28;20116;-77
2022/04/23 05:38:35;;;;;;;0.10;0.10;;;11.80;99.90;;;;;;5013959;28;20436;-85
2022/04/23 05:41:02;;;;;;;0.10;0.10;;;11.90;99.90;;;;;;4996934;28;20458;-77
2022/04/23 05:43:28;;;;;;;0.03;0.03;;;11.90;99.90;;;;;;5014102;28;20141;-76
2022/04/23 05:45:57;;;;;;;0.25;0.25;;;12.00;99.90;;;;;;5014180;28;20034;-77
2022/04/23 05:48:24;;;;;;;0.32;0.30;;;12.20;99.90;;;;;;5012051;28;20030;-85
2022/04/23 05:50:50;;;;;;;3.05;1.33;;;12.30;99.90;;;;;;5013601;28;20032;-85
2022/04/23 05:53:16;;;;;;;0.25;0.25;;;12.40;99.90;;;;;;5010252;28;20412;-85
2022/04/23 05:55:42;;;;;;;0.03;0.03;;;12.50;99.90;;;;;;4994304;28;20029;-77
2022/04/23 05:58:09;;;;;;;1.08;0.32;;;12.50;99.90;;;;;;4992434;28;20030;-77
2022/04/23 06:00:35;;;;;;;0.00;0.00;;;12.60;99.90;;;;;;4994204;28;20026;-77
2022/04/23 06:03:02;;;;;;;0.60;0.60;;;12.60;99.90;;;;;;4992522;28;20022;-77
2022/04/23 06:05:28;;;;;;;0.15;0.10;;;12.60;99.90;;;;;;4993772;28;20025;-78
2022/04/23 06:07:54;;;;;;;0.10;0.10;;;12.70;99.90;;;;;;4993840;28;20031;-76
2022/04/23 06:10:20;;;;;;;1.85;0.28;;;12.70;99.90;;;;;;4994199;28;20032;-77
2022/04/23 06:12:46;;;;;;;0.20;0.20;;;12.70;99.90;;;;;;4994274;28;20484;-84
2022/04/23 06:15:12;;;;;;;0.10;0.10;;;12.80;99.90;;;;;;4993646;28;20561;-80
2022/04/23 06:17:38;;;;;;;0.30;0.30;;;12.80;99.90;;;;;;4994502;28;20034;-85
2022/04/23 06:20:05;;;;;;;0.20;0.20;;;12.80;99.90;;;;;;4993605;28;20018;-77
2022/04/23 06:22:32;;;;;;;0.20;0.20;;;12.90;99.90;;;;;;4994106;28;20018;-77
2022/04/23 06:24:57;;;;;;;0.20;0.20;;;12.90;99.90;;;;;;4992699;28;20028;-77
2022/04/23 06:27:23;;;;;;;1.38;0.38;;;13.00;99.90;;;;;;5011581;28;20026;-85
2022/04/23 06:29:49;;;;;;;0.10;0.10;;;13.00;99.90;;;;;;5013167;28;20064;-85
2022/04/23 06:32:15;;;;;;;0.00;0.00;;;13.10;99.90;;;;;;5011420;28;20042;-84
2022/04/23 06:34:41;;;;;;;0.20;0.20;;;13.20;99.90;;;;;;5011558;28;20037;-85
2022/04/23 06:37:07;;;;;;;0.00;0.00;;;13.30;99.90;;;;;;5012266;28;20401;-77
2022/04/23 06:39:33;;;;;;;0.00;0.00;;;13.40;99.90;;;;;;5013146;28;20037;-77
2022/04/23 06:41:59;;;;;;;0.10;0.10;;;13.40;99.90;;;;;;5013283;28;20104;-77
2022/04/23 06:44:27;;;;;;;0.00;0.00;;;13.30;99.90;;;;;;5011992;28;20040;-77
2022/04/23 06:46:53;;;;;;;0.30;0.28;;;13.30;99.90;;;;;;5013719;28;20034;-76
2022/04/23 06:49:19;;;;;;;0.15;0.15;;;13.40;99.90;;;;;;5012859;28;20037;-85
2022/04/23 06:51:45;;;;;;;0.10;0.10;;;13.40;99.90;;;;;;5012131;28;20104;-77
2022/04/23 06:54:11;;;;;;;0.20;0.20;;;13.50;99.90;;;;;;5003862;28;20037;-77
2022/04/23 06:56:38;;;;;;;0.00;0.00;;;13.60;99.90;;;;;;4992012;28;20031;-77
2022/04/23 06:59:05;;;;;;;0.00;0.00;;;13.70;99.90;;;;;;4992825;28;20100;-85
2022/04/23 07:01:31;;;;;;;0.13;0.13;;;13.90;99.90;;;;;;4994216;28;20022;-77
2022/04/23 07:03:57;;;;;;;0.17;0.08;;;14.10;99.90;;;;;;4992986;28;20026;-77
2022/04/23 07:06:26;;;;;;;0.50;0.50;;;14.20;99.90;;;;;;4993519;28;20541;-77
2022/04/23 07:08:51;;;;;;;0.10;0.10;;;14.30;99.90;;;;;;4995106;28;20030;-85
2022/04/23 07:11:17;;;;;;;0.20;0.20;;;14.40;99.90;;;;;;4997341;28;20378;-77
2022/04/23 07:13:43;;;;;;;0.20;0.20;;;14.50;99.90;;;;;;4995442;28;20033;-85
2022/04/23 07:16:11;;;;;;;0.10;0.10;;;14.60;99.90;;;;;;4997880;28;20026;-86
2022/04/23 07:18:39;;;;;;;0.70;0.45;;;14.70;99.90;;;;;;4997305;28;20037;-77
2022/04/23 07:21:05;;;;;;;0.10;0.10;;;14.80;99.90;;;;;;4997066;28;20018;-77
2022/04/23 07:26:16;;;;;;;0.40;0.30;;;15.10;99.90;;;;;;5007122;28;20029;-77
2022/04/23 07:28:43;;;;;;;0.10;0.10;;;15.20;99.90;;;;;;5016844;28;20022;-85
2022/04/23 07:31:08;;;;;;;0.90;0.20;;;15.10;99.90;;;;;;5015963;28;20029;-77
2022/04/23 07:39:05;;;;;;;0.35;0.35;;;14.90;99.90;;;;;;5016619;28;20408;-77
2022/04/23 07:41:31;;;;;;;0.20;0.20;;;15.00;99.90;;;;;;5015022;28;20037;-77
2022/04/23 07:43:58;;;;;;;0.10;0.10;;;14.90;99.90;;;;;;5016015;28;20400;-77
2022/04/23 07:46:24;;;;;;;0.10;0.10;;;14.80;99.90;;;;;;5016226;28;20129;-86
2022/04/23 07:48:51;;;;;;;0.25;0.25;;;14.90;99.90;;;;;;5014741;28;20057;-85
2022/04/23 07:51:18;;;;;;;0.10;0.10;;;15.10;99.90;;;;;;5016523;28;20041;-77
2022/04/23 07:53:44;;;;;;;0.00;0.00;;;15.30;99.90;;;;;;5016371;28;20402;-77
2022/04/23 07:56:10;;;;;;;0.52;0.52;;;15.60;99.90;;;;;;5015977;28;20029;-77
2022/04/23 07:58:37;;;;;;;1.52;0.60;;;15.70;99.90;;;;;;5015263;28;20033;-77
2022/04/23 08:01:03;;;;;;;0.20;0.20;;;15.70;99.90;;;;;;5016477;28;20033;-77
2022/04/23 08:03:29;;;;;;;0.30;0.17;;;15.50;99.90;;;;;;5016313;28;20021;-77
2022/04/23 08:05:56;;;;;;;0.20;0.20;;;15.30;99.90;;;;;;5016115;28;20405;-77
2022/04/23 08:08:23;;;;;;;0.85;0.60;;;15.10;99.90;;;;;;5014484;28;20030;-83
2022/04/23 08:10:49;;;;;;;0.00;0.00;;;14.90;99.90;;;;;;5015770;28;20108;-76
2022/04/23 08:13:17;;;;;;;0.00;0.00;;;14.80;99.90;;;;;;5014538;28;20029;-84
2022/04/23 08:15:43;;;;;;;0.00;0.00;;;14.80;99.90;;;;;;5015616;28;20362;-77
2022/04/23 08:18:10;;;;;;;6.15;0.90;;;14.70;99.90;;;;;;5014974;28;20018;-77
2022/04/23 08:20:41;;;;;;;0.00;0.00;;;14.70;99.90;;;;;;5013845;28;20061;-78
2022/04/23 08:23:07;;;;;;;0.10;0.10;;;14.60;99.90;;;;;;5014643;28;20029;-76
2022/04/23 08:25:33;;;;;;;0.00;0.00;;;14.60;99.90;;;;;;5015501;28;20210;-85
2022/04/23 08:30:44;;;;;;;0.00;0.00;;;14.60;99.90;;;;;;5015454;28;20084;-77
2022/04/23 08:33:10;;;;;;;0.65;0.32;;;14.70;99.90;;;;;;5015607;28;20118;-76
2022/04/23 08:35:37;;;;;;;0.00;0.00;;;14.70;99.90;;;;;;5014218;28;20136;-84
2022/04/23 08:38:05;;;;;;;0.00;0.00;;;14.80;99.90;;;;;;5013219;28;20552;-77
2022/04/23 08:40:41;;;;;;;0.35;0.35;;;14.90;99.90;;;;;;5015815;28;20037;-77
2022/04/23 08:43:08;;;;;;;0.22;0.22;;;15.20;99.90;;;;;;5014258;28;20075;-77
2022/04/23 08:45:39;;;;;;;1.00;0.20;;;15.30;99.90;;;;;;5015048;28;20026;-81
2022/04/23 08:48:11;;;;;;;1.67;0.30;;;15.20;99.90;;;;;;5015162;28;20030;-77
2022/04/23 08:50:40;;;;;;;0.10;0.10;;;15.20;99.90;;;;;;5014077;28;20409;-77
2022/04/23 08:53:13;;;;;;;0.75;0.55;;;15.20;99.90;;;;;;5012219;28;20050;-77
2022/04/23 08:55:44;;;;;;;0.15;0.15;;;15.20;99.90;;;;;;4994157;28;20114;-77
2022/04/23 08:58:13;;;;;;;0.10;0.10;;;15.30;99.90;;;;;;4994319;28;20031;-85
2022/04/23 09:00:40;;;;;;;1.38;0.90;;;15.30;99.90;;;;;;4994012;28;20034;-76
2022/04/23 09:03:13;;;;;;;3.33;1.63;;;15.20;99.90;;;;;;4995373;28;20069;-76
2022/04/23 09:05:40;;;;;;;;;;;15.20;99.90;;;;;;4995592;28;20076;-85
2022/04/23 09:08:09;;;;;;;2.95;0.52;;;15.00;99.90;;;;;;4995310;28;19906;-76
2022/04/23 09:10:46;;;;;;;0.00;0.00;;;15.00;99.90;;;;;;4995649;28;20027;-85
2022/04/23 09:13:25;;;;;;;0.10;0.10;;;15.10;99.90;;;;;;4995593;28;20551;-85
2022/04/23 09:24:17;;;;;;;0.30;0.22;;;15.30;99.90;;;;;;4994818;28;20164;-76
2022/04/23 09:26:43;;;;;;;0.20;0.15;;;15.20;99.90;;;;;;5008786;28;20025;-77
2022/04/23 09:29:18;;;;;;;0.03;0.03;;;15.50;99.90;;;;;;5013712;28;20018;-85
2022/04/23 09:31:44;;;;;;;0.00;0.00;;;15.60;99.90;;;;;;5014157;28;20030;-85
2022/04/23 09:34:21;;;;;;;0.52;0.35;;;15.50;99.90;;;;;;5014550;28;20386;-84
2022/04/23 09:36:56;;;;;;;14.70;0.45;;;15.40;99.90;;;;;;5013782;28;20030;-76
2022/04/23 09:39:35;;;;;;;0.00;0.00;;;15.60;99.90;;;;;;5012978;28;20022;-76
2022/04/23 09:42:14;;;;;;;2.55;1.25;;;15.80;99.90;;;;;;5014215;28;20026;-76
2022/04/23 09:44:42;;;;;;;0.20;0.20;;;16.20;99.90;;;;;;5014419;28;20515;-86
2022/04/23 09:47:09;;;;;;;0.10;0.10;;;16.10;99.90;;;;;;5013079;28;20490;-76
2022/04/23 09:49:35;;;;;;;0.10;0.10;;;15.80;99.90;;;;;;5013721;28;20025;-84
2022/04/23 09:52:07;;;;;;;0.20;0.20;;;15.50;99.90;;;;;;5014478;28;20081;-75
2022/04/23 09:54:35;;;;;;;0.10;0.10;;;15.50;99.90;;;;;;5014065;28;20033;-76
2022/04/23 09:57:01;;;;;;;0.47;0.32;;;15.50;99.90;;;;;;5013857;28;20026;-85
2022/04/23 09:59:28;;;;;;;0.15;0.15;;;16.10;99.90;;;;;;5012542;28;20033;-76
2022/04/23 10:01:58;;;;;;;9.45;2.30;;;17.20;99.90;;;;;;5013644;28;20429;-76
2022/04/23 10:04:27;;;;;;;0.20;0.10;;;17.70;99.90;;;;;;5013761;28;20030;-84
2022/04/23 10:06:54;;;;;;;10.68;0.43;;;17.10;99.90;;;;;;5014074;28;20054;-76
2022/04/23 10:09:23;;;;;;;0.90;0.90;;;16.10;99.90;;;;;;5013174;28;20037;-84
2022/04/23 10:11:55;;;;;;;0.90;0.32;;;15.40;99.90;;;;;;5012616;28;20036;-76
2022/04/23 10:14:22;;;;;;;0.10;0.10;;;15.20;99.90;;;;;;5012909;28;20022;-84
2022/04/23 10:16:49;;;;;;;0.35;0.05;;;15.40;99.90;;;;;;5012262;28;20033;-76
2022/04/23 10:19:15;;;;;;;1.00;1.00;;;15.40;99.90;;;;;;5013186;28;20036;-75
2022/04/23 10:21:44;;;;;;;0.57;0.43;;;15.20;99.90;;;;;;5012593;28;20057;-75
2022/04/23 10:24:16;;;;;;;0.70;0.28;;;15.00;99.90;;;;;;5013931;28;20018;-75
2022/04/23 10:26:58;;;;;;;7.80;0.43;;;14.60;99.90;;;;;;5013420;28;20014;-75
2022/04/23 10:29:27;;;;;;;0.05;0.05;;;14.60;99.90;;;;;;5011946;28;20030;-75
2022/04/23 10:32:11;;;;;;;0.22;0.22;;;14.40;99.90;;;;;;5013422;28;20032;-85
2022/04/23 10:34:38;;;;;;;0.20;0.20;;;14.20;99.90;;;;;;5012408;28;20491;-76
2022/04/23 10:37:25;;;;;;;0.00;0.00;;;14.10;99.90;;;;;;5011434;28;20386;-76
2022/04/23 10:39:51;;;;;;;0.05;0.05;;;14.10;99.90;;;;;;5013125;28;20481;-75
2022/04/23 11:37:10;;;;;;;0.28;0.28;;;14.50;99.90;;;;;;5625731;23;20432;-77
2022/04/23 11:39:36;;;;;;;0.00;0.00;;;14.70;99.90;;;;;;4897465;29;20040;-84
2022/04/23 11:42:03;;;;;;;0.10;0.10;;;14.80;99.90;;;;;;4901118;29;20381;-86
2022/04/23 11:44:48;;;;;;;0.00;0.00;;;14.70;99.90;;;;;;4899681;29;20412;-85
2022/04/23 11:47:29;;;;;;;1.75;0.85;;;14.70;99.90;;;;;;4901468;29;20025;-77
2022/04/23 11:50:06;;;;;;;0.10;0.10;;;14.80;99.90;;;;;;4900860;29;20560;-77
2022/04/23 11:52:33;;;;;;;0.03;0.03;;;15.00;99.90;;;;;;4899667;29;20026;-85
2022/04/23 11:55:01;;;;;;;0.10;0.10;;;15.10;99.90;;;;;;4868929;29;20041;-77
2022/04/23 11:57:27;;;;;;;5.47;0.55;;;14.90;99.90;;;;;;4862479;29;20049;-87
2022/04/23 11:59:59;;;;;;;0.00;0.00;;;15.00;99.90;;;;;;4863446;29;20037;-77
2022/04/23 12:02:28;;;;;;;0.00;0.00;;;14.90;99.90;;;;;;4863459;29;20026;-86
2022/04/23 12:04:57;;;;;;;0.00;0.00;;;14.90;99.90;;;;;;4863460;29;20038;-76
2022/04/23 12:07:25;;;;;;;0.03;0.03;;;15.00;99.90;;;;;;4847092;29;20036;-76
2022/04/23 12:09:56;;;;;;;0.55;0.55;;;15.00;99.90;;;;;;4863459;29;20033;-86
2022/04/23 12:12:26;;;;;;;0.00;0.00;;;15.10;99.90;;;;;;4863397;29;20057;-76
2022/04/23 12:14:55;;;;;;;0.00;0.00;;;15.00;99.90;;;;;;4862732;29;20044;-77
2022/04/23 12:17:29;;;;;;;0.00;0.00;;;14.80;99.90;;;;;;4863425;29;20086;-86
2022/04/23 12:19:57;;;;;;;0.00;0.00;;;14.60;99.90;;;;;;4862507;29;20033;-77
2022/04/23 12:22:27;;;;;;;0.00;0.00;;;14.50;99.90;;;;;;4862437;29;20109;-76
2022/04/23 12:25:16;;;;;;;0.00;0.00;;;14.30;99.90;;;;;;4863379;29;20030;-76
2022/04/23 12:42:08;;;;;;;0.10;0.10;;;14.00;99.90;;;;;;5585363;23;20048;-73
2022/04/23 12:44:54;;;;;;;0.00;0.00;;;14.10;99.90;;;;;;4901007;29;20028;-74
2022/04/23 12:50:06;;;;;;;0.95;0.73;;;14.50;99.90;;;;;;5530705;23;20060;-92
2022/04/23 12:52:38;;;;;;;2.38;0.20;;;14.50;99.90;;;;;;4898699;29;20033;-96
2022/04/23 12:55:19;;;;;;;0.05;0.05;;;14.20;99.90;;;;;;4897923;29;20084;-91
2022/04/23 12:57:54;;;;;;;0.65;0.65;;;14.20;99.90;;;;;;4896995;29;20036;-93
2022/04/23 13:00:22;;;;;;;1.38;0.05;;;14.10;99.90;;;;;;4900171;29;20061;-91
2022/04/23 13:02:52;;;;;;;0.08;0.08;;;14.20;99.90;;;;;;4899304;29;20032;-91
2022/04/23 13:05:18;;;;;;;0.00;0.00;;;14.40;99.90;;;;;;4897865;29;20028;-95
2022/04/23 13:10:28;;;;;;;0.00;0.00;;;14.40;99.90;;;;;;4899505;29;20124;-93
2022/04/23 13:12:54;;;;;;;0.20;0.20;;;14.60;99.90;;;;;;4897997;29;20128;-94
2022/04/23 13:15:20;;;;;;;0.25;0.25;;;14.60;99.90;;;;;;4897878;29;20028;-91
2022/04/23 13:17:47;;;;;;;0.00;0.00;;;14.60;99.90;;;;;;4898771;29;20464;-94
2022/04/23 13:20:14;;;;;;;0.80;0.20;;;14.50;99.90;;;;;;4897718;29;20559;-91
2022/04/23 13:22:43;;;;;;;0.55;0.43;;;14.30;99.90;;;;;;4897606;29;20029;-91
2022/04/23 13:25:15;;;;;;;0.32;0.32;;;14.00;99.90;;;;;;4898157;29;20111;-90
2022/04/23 13:27:41;;;;;;;0.25;0.25;;;13.90;99.90;;;;;;4894541;29;20056;-91
2022/04/23 13:30:08;;;;;;;0.10;0.10;;;13.70;99.90;;;;;;4894356;29;20041;-95
2022/04/23 13:32:36;;;;;;;0.10;0.10;;;13.60;99.90;;;;;;4880622;29;20041;-95
2022/04/23 13:35:06;;;;;;;0.25;0.25;;;13.50;99.90;;;;;;4894969;29;20386;-92
2022/04/23 13:37:32;;;;;;;0.03;0.03;;;13.50;99.90;;;;;;4880531;29;20040;-94
2022/04/23 13:39:58;;;;;;;0.10;0.10;;;13.50;99.90;;;;;;4880013;29;20029;-91
2022/04/23 13:42:28;;;;;;;0.75;0.68;;;13.40;99.90;;;;;;4894350;29;20029;-95
2022/04/23 13:44:56;;;;;;;0.00;0.00;;;13.40;99.90;;;;;;4894995;29;20532;-95
2022/04/23 13:47:22;;;;;;;0.10;0.10;;;13.40;99.90;;;;;;4894422;29;20025;-92
2022/04/23 13:49:49;;;;;;;0.05;0.05;;;13.60;99.90;;;;;;4894906;29;20077;-95
2022/04/23 13:52:15;;;;;;;0.20;0.20;;;13.80;99.90;;;;;;4894221;29;20025;-92
2022/04/23 13:54:41;;;;;;;0.10;0.10;;;13.90;99.90;;;;;;4896997;29;20061;-96
2022/04/23 13:57:07;;;;;;;0.00;0.00;;;13.90;99.90;;;;;;4897562;29;20076;-92
2022/04/23 13:59:33;;;;;;;0.30;0.10;;;13.90;99.90;;;;;;4897390;29;20041;-91
2022/04/23 14:10:12;;;;;;;0.00;0.00;;;14.30;99.90;;;;;;4898610;29;20095;-92
2022/04/23 14:12:38;;;;;;;0.10;0.10;;;14.40;99.90;;;;;;4897305;29;20488;-94
2022/04/23 14:15:05;;;;;;;0.00;0.00;;;14.50;99.90;;;;;;4897236;29;20044;-96
2022/04/23 14:17:31;;;;;;;0.00;0.00;;;14.80;99.90;;;;;;4896812;29;20064;-91
2022/04/23 14:19:58;;;;;;;0.10;0.10;;;14.80;99.90;;;;;;4897215;29;20423;-94
2022/04/23 14:22:24;;;;;;;0.03;0.03;;;14.80;99.90;;;;;;4897278;29;20029;-91
2022/04/23 14:24:50;;;;;;;0.00;0.00;;;15.10;99.90;;;;;;4896893;29;20074;-93
2022/04/23 14:27:16;;;;;;;0.00;0.00;;;14.90;99.90;;;;;;4897201;29;20041;-96
2022/04/23 14:29:42;;;;;;;0.00;0.00;;;14.60;99.90;;;;;;4896952;29;20142;-91
2022/04/23 14:32:08;;;;;;;0.00;0.00;;;14.60;99.90;;;;;;4897106;29;20567;-93
2022/04/23 14:34:34;;;;;;;0.10;0.10;;;14.70;99.90;;;;;;4897245;29;20036;-91